createdAt,value
2016-11-11T00:01:04.342Z,86.41
2016-11-11T00:02:13.609Z,86.88
2016-11-11T00:03:22.881Z,87.45
2016-11-11T00:04:31.816Z,87.92
2016-11-11T00:05:40.954Z,87.64
2016-11-11T00:06:49.927Z,87.45
2016-11-11T00:07:59.183Z,86.88
2016-11-11T00:09:08.119Z,86.98
2016-11-11T00:10:17.376Z,87.83
2016-11-11T00:11:26.239Z,86.79
2016-11-11T00:12:35.175Z,86.22
2016-11-11T00:13:43.779Z,85.55
2016-11-11T00:14:52.720Z,85.65
2016-11-11T00:16:02.294Z,85.93
2016-11-11T00:17:10.962Z,85.84
2016-11-11T00:18:20.203Z,85.74
2016-11-11T00:19:29.129Z,85.65
2016-11-11T00:20:38.055Z,85.74
2016-11-11T00:21:46.668Z,85.84
2016-11-11T00:22:55.657Z,85.55
2016-11-11T00:24:04.259Z,85.55
2016-11-11T00:25:13.192Z,85.46
2016-11-11T00:26:22.114Z,85.93
2016-11-11T00:27:31.369Z,85.36
2016-11-11T00:28:40.342Z,85.84
2016-11-11T00:29:49.271Z,85.17
2016-11-11T00:30:58.194Z,86.5
2016-11-11T00:32:06.805Z,86.03
2016-11-11T00:33:15.730Z,85.74
2016-11-11T00:34:25.088Z,85.84
2016-11-11T00:35:34.010Z,85.74
2016-11-11T00:36:42.938Z,85.74
2016-11-11T00:37:51.538Z,85.36
2016-11-11T00:39:00.458Z,85.93
2016-11-11T00:40:09.154Z,86.03
2016-11-11T00:41:18.077Z,85.55
2016-11-11T00:42:26.711Z,85.55
2016-11-11T00:43:35.960Z,85.46
2016-11-11T00:44:44.569Z,86.5
2016-11-11T00:45:54.038Z,86.22
2016-11-11T00:47:02.973Z,85.74
2016-11-11T00:48:11.899Z,85.27
2016-11-11T00:49:21.159Z,86.12
2016-11-11T00:50:29.768Z,85.27
2016-11-11T00:51:38.424Z,85.17
2016-11-11T00:52:47.350Z,85.93
2016-11-11T00:53:55.969Z,85.93
2016-11-11T00:55:04.574Z,85.93
2016-11-11T00:56:13.815Z,86.31
2016-11-11T00:57:22.913Z,86.69
2016-11-11T00:58:31.517Z,86.55
2016-11-11T00:59:40.130Z,86.03
2016-11-11T01:00:48.747Z,85.84
2016-11-11T01:01:58.008Z,86.6
2016-11-11T01:03:06.759Z,86.83
2016-11-11T01:04:15.366Z,86.22
2016-11-11T01:05:24.302Z,86.83
2016-11-11T01:06:33.870Z,86.6
2016-11-11T01:07:42.807Z,86.79
2016-11-11T01:08:52.100Z,86.03
2016-11-11T01:10:00.709Z,86.03
2016-11-11T01:11:09.644Z,85.84
2016-11-11T01:12:18.890Z,85.84
2016-11-11T01:13:27.516Z,85.55
2016-11-11T01:14:36.917Z,86.31
2016-11-11T01:15:45.844Z,85.27
2016-11-11T01:16:54.459Z,85.84
2016-11-11T01:18:03.726Z,85.36
2016-11-11T01:19:12.671Z,85.27
2016-11-11T01:20:21.321Z,85.65
2016-11-11T01:21:30.255Z,85.27
2016-11-11T01:22:39.195Z,84.61
2016-11-11T01:23:48.131Z,84.51
2016-11-11T01:24:57.390Z,85.27
2016-11-11T01:26:06.157Z,85.17
2016-11-11T01:27:14.771Z,85.36
2016-11-11T01:28:23.705Z,85.93
2016-11-11T01:29:32.645Z,85.93
2016-11-11T01:30:41.253Z,85.84
2016-11-11T01:31:50.869Z,85.55
2016-11-11T01:32:59.471Z,85.84
2016-11-11T01:34:08.734Z,86.22
2016-11-11T01:35:17.660Z,86.12
2016-11-11T01:36:26.590Z,85.46
2016-11-11T01:37:35.580Z,85.65
2016-11-11T01:38:44.502Z,86.03
2016-11-11T01:39:53.767Z,86.22
2016-11-11T01:41:02.690Z,85.84
2016-11-11T01:42:11.632Z,85.65
2016-11-11T01:43:20.722Z,86.03
2016-11-11T01:44:29.371Z,86.69
2016-11-11T01:45:39.280Z,86.12
2016-11-11T01:46:48.540Z,85.36
2016-11-11T01:47:57.156Z,85.27
2016-11-11T01:49:06.147Z,85.84
2016-11-11T01:50:14.767Z,85.27
2016-11-11T01:51:23.698Z,86.03
2016-11-11T01:52:32.302Z,84.99
2016-11-11T01:53:41.229Z,85.74
2016-11-11T01:54:49.884Z,85.65
2016-11-11T01:55:59.137Z,85.46
2016-11-11T01:57:07.763Z,85.55
2016-11-11T01:58:16.691Z,85.17
2016-11-11T01:59:25.628Z,84.8
2016-11-11T02:00:34.989Z,85.27
2016-11-11T02:01:44.242Z,85.08
2016-11-11T02:02:53.171Z,85.27
2016-11-11T02:04:08.382Z,85.84
2016-11-11T02:05:17.636Z,85.46
2016-11-11T02:06:26.453Z,84.99
2016-11-11T02:07:35.718Z,84.8
2016-11-11T02:08:44.646Z,84.89
2016-11-11T02:09:53.592Z,85.84
2016-11-11T02:11:02.846Z,85.84
2016-11-11T02:12:12.349Z,85.46
2016-11-11T02:13:21.276Z,85.27
2016-11-11T02:14:30.225Z,85.65
2016-11-11T02:15:39.155Z,85.55
2016-11-11T02:16:48.091Z,84.99
2016-11-11T02:17:56.754Z,85.27
2016-11-11T02:19:06.029Z,85.17
2016-11-11T02:20:14.640Z,85.46
2016-11-11T02:21:23.572Z,85.36
2016-11-11T02:22:32.511Z,85.93
2016-11-11T02:23:41.644Z,86.41
2016-11-11T02:24:50.256Z,86.03
2016-11-11T02:25:59.239Z,86.31
2016-11-11T02:27:14.117Z,86.74
2016-11-11T02:28:23.039Z,86.36
2016-11-11T02:29:32.077Z,86.98
2016-11-11T02:30:40.695Z,86.83
2016-11-11T02:31:49.623Z,86.74
2016-11-11T02:32:58.570Z,87.69
2016-11-11T02:34:08.474Z,86.74
2016-11-11T02:35:17.772Z,86.83
2016-11-11T02:36:27.027Z,87.5
2016-11-11T02:37:36.271Z,87.21
2016-11-11T02:38:44.893Z,86.83
2016-11-11T02:39:54.140Z,86.65
2016-11-11T02:41:02.923Z,86.27
2016-11-11T02:42:12.179Z,86.65
2016-11-11T02:43:21.424Z,85.99
2016-11-11T02:44:30.347Z,85.99
2016-11-11T02:45:39.302Z,85.89
2016-11-11T02:46:47.964Z,85.99
2016-11-11T02:47:57.219Z,86.36
2016-11-11T02:49:06.476Z,85.61
2016-11-11T02:50:15.091Z,86.18
2016-11-11T02:51:24.025Z,86.08
2016-11-11T02:52:32.884Z,86.18
2016-11-11T02:53:41.815Z,86.08
2016-11-11T02:54:50.739Z,85.8
2016-11-11T02:56:00.337Z,86.08
2016-11-11T02:57:09.258Z,85.99
2016-11-11T02:58:18.390Z,85.99
2016-11-11T02:59:27.334Z,86.65
2016-11-11T03:00:36.265Z,85.8
2016-11-11T03:01:45.533Z,85.42
2016-11-11T03:02:54.148Z,86.46
2016-11-11T03:04:03.144Z,86.74
2016-11-11T03:05:12.088Z,86.65
2016-11-11T03:06:21.007Z,86.65
2016-11-11T03:07:29.601Z,86.08
2016-11-11T03:08:38.540Z,86.74
2016-11-11T03:09:47.857Z,86.46
2016-11-11T03:10:57.102Z,86.46
2016-11-11T03:12:06.051Z,86.83
2016-11-11T03:13:14.669Z,86.93
2016-11-11T03:14:23.614Z,87.12
2016-11-11T03:15:33.250Z,86.74
2016-11-11T03:16:42.186Z,86.65
2016-11-11T03:17:50.800Z,86.36
2016-11-11T03:18:59.731Z,87.02
2016-11-11T03:20:08.370Z,87.21
2016-11-11T03:21:17.803Z,86.74
2016-11-11T03:22:27.380Z,87.31
2016-11-11T03:23:35.983Z,87.12
2016-11-11T03:24:45.255Z,87.12
2016-11-11T03:25:54.191Z,86.65
2016-11-11T03:27:03.372Z,85.99
2016-11-11T03:28:12.627Z,86.08
2016-11-11T03:29:21.577Z,86.27
2016-11-11T03:30:30.508Z,86.18
2016-11-11T03:31:40.097Z,86.65
2016-11-11T03:32:48.793Z,86.46
2016-11-11T03:33:57.410Z,86.65
2016-11-11T03:35:06.350Z,86.65
2016-11-11T03:36:14.961Z,86.08
2016-11-11T03:37:24.552Z,85.89
2016-11-11T03:38:33.729Z,85.7
2016-11-11T03:39:42.335Z,85.8
2016-11-11T03:40:51.272Z,85.84
2016-11-11T03:42:00.528Z,85.55
2016-11-11T03:43:09.471Z,86.36
2016-11-11T03:44:18.334Z,86.27
2016-11-11T03:45:26.946Z,85.89
2016-11-11T03:46:36.198Z,85.99
2016-11-11T03:47:44.810Z,85.42
2016-11-11T03:48:53.752Z,85.61
2016-11-11T03:50:03.216Z,85.89
2016-11-11T03:51:12.154Z,85.99
2016-11-11T03:52:20.756Z,85.7
2016-11-11T03:53:29.358Z,86.08
2016-11-11T03:54:37.955Z,85.8
2016-11-11T03:55:46.944Z,86.65
2016-11-11T03:56:55.913Z,87.12
2016-11-11T03:58:04.842Z,86.65
2016-11-11T03:59:13.768Z,86.65
2016-11-11T04:00:22.687Z,86.83
2016-11-11T04:01:31.665Z,87.02
2016-11-11T04:02:40.917Z,86.55
2016-11-11T04:03:49.869Z,85.61
2016-11-11T04:04:59.129Z,85.51
2016-11-11T04:06:07.751Z,85.23
2016-11-11T04:07:16.741Z,85.7
2016-11-11T04:08:25.987Z,85.51
2016-11-11T04:09:35.270Z,85.42
2016-11-11T04:10:44.202Z,86.74
2016-11-11T04:11:53.123Z,85.89
2016-11-11T04:13:01.832Z,86.55
2016-11-11T04:14:10.769Z,86.27
2016-11-11T04:15:19.697Z,86.74
2016-11-11T04:16:28.313Z,86.74
2016-11-11T04:17:37.243Z,87.12
2016-11-11T04:18:46.274Z,87.21
2016-11-11T04:19:54.889Z,86.08
2016-11-11T04:21:04.159Z,85.8
2016-11-11T04:22:13.410Z,86.74
2016-11-11T04:23:22.358Z,86.65
2016-11-11T04:24:31.007Z,86.74
2016-11-11T04:25:39.615Z,86.6
2016-11-11T04:26:48.551Z,85.99
2016-11-11T04:27:57.494Z,86.08
2016-11-11T04:29:06.126Z,86.46
2016-11-11T04:30:15.741Z,86.83
2016-11-11T04:31:24.349Z,86.74
2016-11-11T04:32:32.956Z,87.31
2016-11-11T04:33:41.891Z,86.93
2016-11-11T04:34:51.153Z,87.59
2016-11-11T04:35:59.808Z,87.02
2016-11-11T04:37:08.430Z,87.12
2016-11-11T04:38:17.697Z,87.36
2016-11-11T04:39:26.956Z,87.4
2016-11-11T04:40:35.895Z,87.46
2016-11-11T04:41:44.916Z,87.84
2016-11-11T04:42:53.545Z,87.84
2016-11-11T04:44:03.139Z,87.84
2016-11-11T04:45:12.076Z,87.46
2016-11-11T04:46:21.331Z,87.46
2016-11-11T04:47:30.078Z,87.55
2016-11-11T04:48:39.010Z,87.46
2016-11-11T04:49:47.944Z,87.08
2016-11-11T04:50:57.221Z,86.98
2016-11-11T04:52:06.472Z,86.89
2016-11-11T04:53:15.123Z,87.27
2016-11-11T04:54:24.710Z,86.6
2016-11-11T04:55:33.319Z,85.75
2016-11-11T04:56:42.252Z,86.04
2016-11-11T04:57:51.183Z,86.13
2016-11-11T04:59:00.543Z,86.41
2016-11-11T05:00:09.797Z,85.75
2016-11-11T05:01:18.410Z,85.85
2016-11-11T05:02:27.347Z,85.47
2016-11-11T05:03:36.281Z,85.47
2016-11-11T05:04:44.951Z,85.85
2016-11-11T05:05:53.884Z,85.66
2016-11-11T05:07:02.837Z,85.13
2016-11-11T05:08:12.412Z,85.19
2016-11-11T05:09:21.353Z,84.75
2016-11-11T05:10:30.065Z,85.7
2016-11-11T05:11:39.011Z,85.89
2016-11-11T05:12:47.944Z,85.19
2016-11-11T05:13:56.563Z,85.61
2016-11-11T05:15:05.815Z,85.61
2016-11-11T05:16:14.810Z,85.51
2016-11-11T05:17:23.445Z,85.89
2016-11-11T05:18:32.384Z,85.89
2016-11-11T05:19:40.996Z,85.8
2016-11-11T05:20:49.920Z,85.7
2016-11-11T05:21:58.896Z,85.8
2016-11-11T05:23:08.141Z,85.51
2016-11-11T05:24:17.077Z,85.51
2016-11-11T05:25:26.335Z,85.7
2016-11-11T05:26:34.950Z,85.13
2016-11-11T05:27:44.080Z,85.61
2016-11-11T05:28:53.006Z,85.13
2016-11-11T05:30:01.626Z,84.94
2016-11-11T05:31:10.562Z,84.94
2016-11-11T05:32:20.180Z,85.04
2016-11-11T05:33:28.890Z,84.66
2016-11-11T05:34:38.141Z,85.23
2016-11-11T05:35:47.392Z,85.04
2016-11-11T05:36:56.326Z,84.28
2016-11-11T05:38:05.290Z,84
2016-11-11T05:39:14.320Z,83.81
2016-11-11T05:40:23.575Z,83.81
2016-11-11T05:41:32.196Z,83.43
2016-11-11T05:42:40.798Z,83.14
2016-11-11T05:43:50.041Z,83.14
2016-11-11T05:44:58.706Z,82.86
2016-11-11T05:46:07.632Z,82.48
2016-11-11T05:47:16.253Z,82.57
2016-11-11T05:48:24.857Z,82.39
2016-11-11T05:49:33.791Z,82.1
2016-11-11T05:50:42.497Z,82.2
2016-11-11T05:51:51.112Z,82.2
2016-11-11T05:52:59.722Z,82.48
2016-11-11T05:54:08.316Z,82.1
2016-11-11T05:55:16.936Z,82.2
2016-11-11T05:56:25.914Z,82.29
2016-11-11T05:57:35.176Z,82.39
2016-11-11T05:58:43.798Z,82.57
2016-11-11T05:59:52.731Z,82.95
2016-11-11T06:01:01.677Z,82.76
2016-11-11T06:02:10.984Z,82.76
2016-11-11T06:03:20.558Z,82.39
2016-11-11T06:04:29.482Z,82.29
2016-11-11T06:05:38.099Z,81.72
2016-11-11T06:06:47.037Z,81.82
2016-11-11T06:07:56.063Z,81.44
2016-11-11T06:09:04.987Z,81.63
2016-11-11T06:10:14.250Z,81.72
2016-11-11T06:11:22.852Z,81.82
2016-11-11T06:12:32.168Z,81.63
2016-11-11T06:13:40.874Z,81.53
2016-11-11T06:14:49.812Z,81.15
2016-11-11T06:15:58.749Z,81.44
2016-11-11T06:17:08.006Z,81.53
2016-11-11T06:18:16.619Z,81.72
2016-11-11T06:19:26.232Z,81.72
2016-11-11T06:20:35.504Z,80.87
2016-11-11T06:21:44.119Z,80.96
2016-11-11T06:22:53.375Z,80.87
2016-11-11T06:24:02.301Z,81.15
2016-11-11T06:25:11.601Z,81.25
2016-11-11T06:26:20.953Z,81.53
2016-11-11T06:27:29.594Z,80.77
2016-11-11T06:28:38.267Z,81.44
2016-11-11T06:29:47.751Z,81.25
2016-11-11T06:30:57.488Z,81.25
2016-11-11T06:32:06.428Z,80.87
2016-11-11T06:33:15.538Z,80.77
2016-11-11T06:34:24.555Z,81.25
2016-11-11T06:35:33.561Z,80.96
2016-11-11T06:36:42.837Z,80.77
2016-11-11T06:37:51.876Z,80.4
2016-11-11T06:39:00.928Z,80.4
2016-11-11T06:40:09.858Z,80.11
2016-11-11T06:41:18.464Z,80.11
2016-11-11T06:42:27.164Z,80.21
2016-11-11T06:43:36.745Z,79.55
2016-11-11T06:44:45.352Z,79.74
2016-11-11T06:45:54.640Z,79.64
2016-11-11T06:47:03.249Z,79.74
2016-11-11T06:48:12.288Z,79.07
2016-11-11T06:49:21.254Z,79.64
2016-11-11T06:50:30.172Z,79.64
2016-11-11T06:51:38.774Z,79.74
2016-11-11T06:52:48.047Z,79.26
2016-11-11T06:53:56.944Z,79.45
2016-11-11T06:55:05.560Z,79.11
2016-11-11T06:56:14.499Z,79.3
2016-11-11T06:57:23.108Z,79.68
2016-11-11T06:58:32.384Z,79.49
2016-11-11T06:59:41.348Z,80.21
2016-11-11T07:00:50.290Z,80.25
2016-11-11T07:01:58.891Z,80.72
2016-11-11T07:03:07.494Z,80.72
2016-11-11T07:04:16.434Z,81.57
2016-11-11T07:05:25.428Z,81.01
2016-11-11T07:06:34.087Z,81.67
2016-11-11T07:07:43.073Z,81.76
2016-11-11T07:08:52.034Z,82.24
2016-11-11T07:10:01.657Z,83
2016-11-11T07:11:14.015Z,83
2016-11-11T07:12:22.962Z,82.43
2016-11-11T07:13:31.895Z,82.62
2016-11-11T07:14:41.152Z,83.28
2016-11-11T07:15:50.421Z,83
2016-11-11T07:16:59.428Z,83.09
2016-11-11T07:18:08.362Z,83.66
2016-11-11T07:19:16.973Z,83
2016-11-11T07:20:25.594Z,83.37
2016-11-11T07:21:34.521Z,83.75
2016-11-11T07:22:43.205Z,83.09
2016-11-11T07:23:52.506Z,83.09
2016-11-11T07:25:01.980Z,82.81
2016-11-11T07:26:10.643Z,83
2016-11-11T07:27:19.351Z,83.28
2016-11-11T07:28:28.631Z,84.32
2016-11-11T07:29:38.445Z,84.32
2016-11-11T07:30:48.033Z,84.51
2016-11-11T07:31:57.758Z,84.61
2016-11-11T07:33:06.797Z,84.46
2016-11-11T07:34:15.776Z,84.17
2016-11-11T07:35:24.713Z,84.65
2016-11-11T07:36:33.653Z,84.27
2016-11-11T07:37:42.578Z,84.46
2016-11-11T07:38:51.204Z,84.27
2016-11-11T07:40:00.179Z,84.36
2016-11-11T07:41:08.788Z,84.27
2016-11-11T07:42:17.712Z,84.27
2016-11-11T07:43:26.325Z,84.17
2016-11-11T07:44:35.919Z,84.17
2016-11-11T07:45:44.985Z,84.08
2016-11-11T07:46:53.608Z,84.08
2016-11-11T07:48:02.217Z,83.04
2016-11-11T07:49:10.825Z,83.04
2016-11-11T07:50:20.095Z,82.66
2016-11-11T07:51:29.058Z,82.56
2016-11-11T07:52:38.311Z,82.47
2016-11-11T07:53:46.925Z,82.66
2016-11-11T07:54:55.849Z,83.04
2016-11-11T07:56:04.463Z,82.23
2016-11-11T07:57:14.134Z,83.08
2016-11-11T07:58:23.071Z,82.7
2016-11-11T07:59:32.013Z,81.66
2016-11-11T08:00:41.282Z,81.94
2016-11-11T08:01:50.251Z,82.6
2016-11-11T08:02:59.498Z,82.42
2016-11-11T08:04:08.450Z,82.42
2016-11-11T08:05:17.752Z,82.42
2016-11-11T08:06:26.363Z,82.51
2016-11-11T08:07:35.319Z,82.42
2016-11-11T08:08:44.878Z,82.13
2016-11-11T08:09:54.809Z,81.85
2016-11-11T08:11:04.074Z,81.47
2016-11-11T08:12:13.006Z,81.47
2016-11-11T08:13:21.930Z,81.75
2016-11-11T08:14:30.980Z,81.09
2016-11-11T08:15:39.926Z,80.52
2016-11-11T08:16:48.856Z,80.14
2016-11-11T08:17:57.780Z,79.85
2016-11-11T08:19:06.397Z,79.57
2016-11-11T08:20:15.058Z,79.95
2016-11-11T08:21:25.059Z,79.57
2016-11-11T08:22:34.015Z,79.85
2016-11-11T08:23:42.960Z,79.19
2016-11-11T08:24:51.580Z,79.1
2016-11-11T08:26:00.539Z,78.72
2016-11-11T08:27:09.159Z,78.72
2016-11-11T08:28:18.091Z,78.15
2016-11-11T08:29:26.723Z,78.09
2016-11-11T08:30:35.675Z,78.66
2016-11-11T08:31:45.042Z,79.19
2016-11-11T08:32:53.649Z,78.81
2016-11-11T08:34:02.615Z,78.91
2016-11-11T08:35:11.582Z,77.9
2016-11-11T08:36:20.250Z,78.95
2016-11-11T08:37:29.577Z,78.81
2016-11-11T08:38:38.285Z,79.1
2016-11-11T08:39:46.947Z,78.91
2016-11-11T08:40:55.911Z,78.91
2016-11-11T08:42:04.884Z,78.53
2016-11-11T08:43:14.207Z,78.91
2016-11-11T08:44:23.167Z,79.47
2016-11-11T08:45:31.790Z,78.91
2016-11-11T08:46:41.111Z,79.38
2016-11-11T08:47:50.093Z,78.62
2016-11-11T08:48:59.113Z,78.81
2016-11-11T08:50:07.730Z,78.62
2016-11-11T08:51:16.356Z,78.62
2016-11-11T08:52:24.968Z,78.53
2016-11-11T08:53:33.915Z,77.77
2016-11-11T08:54:43.256Z,77.05
2016-11-11T08:55:52.224Z,77.14
2016-11-11T08:57:01.529Z,77.39
2016-11-11T08:58:10.150Z,77.86
2016-11-11T08:59:19.155Z,77.2
2016-11-11T09:00:28.262Z,77.43
2016-11-11T09:01:36.911Z,77.24
2016-11-11T09:02:45.842Z,77.96
2016-11-11T09:03:54.785Z,78.43
2016-11-11T09:05:03.723Z,77.29
2016-11-11T09:06:13.029Z,77.24
2016-11-11T09:07:21.969Z,77.43
2016-11-11T09:08:31.224Z,77.14
2016-11-11T09:09:40.169Z,76.95
2016-11-11T09:10:49.436Z,76.57
2016-11-11T09:11:59.041Z,77.52
2016-11-11T09:13:07.686Z,77.2
2016-11-11T09:14:16.627Z,77.9
2016-11-11T09:15:25.924Z,78
2016-11-11T09:16:34.564Z,77.48
2016-11-11T09:17:43.290Z,76.86
2016-11-11T09:18:51.911Z,77.14
2016-11-11T09:20:01.197Z,77.14
2016-11-11T09:21:10.781Z,77.33
2016-11-11T09:22:19.716Z,77.48
2016-11-11T09:23:28.426Z,78
2016-11-11T09:24:37.376Z,77.43
2016-11-11T09:25:46.316Z,77.52
2016-11-11T09:26:55.259Z,77.05
2016-11-11T09:28:04.205Z,77.24
2016-11-11T09:29:13.612Z,77.9
2016-11-11T09:30:22.540Z,77.71
2016-11-11T09:31:31.144Z,77.24
2016-11-11T09:32:39.797Z,76.86
2016-11-11T09:33:48.716Z,76.48
2016-11-11T09:34:58.026Z,76.67
2016-11-11T09:36:06.956Z,76.57
2016-11-11T09:37:15.578Z,76.67
2016-11-11T09:38:24.525Z,75.81
2016-11-11T09:39:33.811Z,76.57
2016-11-11T09:40:43.164Z,76.54
2016-11-11T09:41:52.116Z,76.54
2016-11-11T09:43:01.048Z,76.76
2016-11-11T09:44:09.672Z,76.29
2016-11-11T09:45:18.957Z,76.39
2016-11-11T09:46:27.967Z,76.2
2016-11-11T09:47:37.872Z,76.1
2016-11-11T09:48:46.817Z,75.81
2016-11-11T09:49:55.744Z,75.34
2016-11-11T09:51:04.679Z,76.29
2016-11-11T09:52:13.354Z,75.81
2016-11-11T09:53:22.294Z,75.62
2016-11-11T09:54:31.574Z,76.39
2016-11-11T09:55:40.776Z,75.62
2016-11-11T09:56:50.048Z,75.24
2016-11-11T09:57:58.967Z,74.2
2016-11-11T09:59:07.920Z,74.58
2016-11-11T10:00:16.864Z,74.49
2016-11-11T10:01:25.803Z,74.58
2016-11-11T10:02:34.723Z,74.58
2016-11-11T10:03:43.717Z,75.05
2016-11-11T10:04:52.327Z,74.49
2016-11-11T10:06:01.257Z,74.2
2016-11-11T10:07:10.195Z,73.63
2016-11-11T10:08:19.145Z,73.67
2016-11-11T10:09:28.701Z,73.76
2016-11-11T10:10:37.334Z,73.92
2016-11-11T10:11:46.281Z,74.58
2016-11-11T10:12:55.230Z,74.3
2016-11-11T10:14:04.186Z,74.39
2016-11-11T10:15:13.475Z,74.96
2016-11-11T10:16:22.123Z,74.01
2016-11-11T10:17:30.721Z,73.67
2016-11-11T10:18:39.658Z,73.63
2016-11-11T10:19:48.912Z,73.57
2016-11-11T10:20:58.563Z,73.48
2016-11-11T10:22:08.146Z,73.29
2016-11-11T10:23:16.765Z,72.91
2016-11-11T10:24:25.704Z,72.91
2016-11-11T10:25:34.350Z,73.82
2016-11-11T10:26:43.738Z,73.38
2016-11-11T10:27:53.346Z,73.54
2016-11-11T10:29:02.008Z,73.44
2016-11-11T10:30:10.953Z,73.63
2016-11-11T10:31:19.889Z,73.54
2016-11-11T10:32:29.192Z,73.76
2016-11-11T10:33:37.825Z,73.57
2016-11-11T10:34:46.492Z,72.63
2016-11-11T10:35:55.800Z,73.35
2016-11-11T10:37:04.747Z,72.68
2016-11-11T10:38:13.787Z,72.34
2016-11-11T10:39:22.443Z,72.81
2016-11-11T10:40:31.764Z,72.81
2016-11-11T10:41:41.039Z,72.53
2016-11-11T10:42:50.000Z,72.25
2016-11-11T10:43:59.287Z,73
2016-11-11T10:45:08.256Z,73
2016-11-11T10:46:17.262Z,72.72
2016-11-11T10:47:26.213Z,72.91
2016-11-11T10:48:35.476Z,72.63
2016-11-11T10:49:44.231Z,73.1
2016-11-11T10:50:52.876Z,73.19
2016-11-11T10:52:01.531Z,73.1
2016-11-11T10:53:11.117Z,73.19
2016-11-11T10:54:19.740Z,73
2016-11-11T10:55:29.345Z,72.44
2016-11-11T10:56:38.275Z,71.96
2016-11-11T10:57:47.228Z,72.91
2016-11-11T10:58:56.177Z,72.15
2016-11-11T11:00:05.124Z,72.91
2016-11-11T11:01:14.106Z,73.38
2016-11-11T11:02:23.544Z,72.81
2016-11-11T11:03:33.458Z,72.63
2016-11-11T11:04:43.365Z,72.63
2016-11-11T11:05:52.633Z,72.63
2016-11-11T11:07:02.293Z,72.63
2016-11-11T11:08:12.207Z,72.91
2016-11-11T11:09:22.132Z,73.38
2016-11-11T11:10:31.584Z,73.67
2016-11-11T11:11:40.197Z,74.33
2016-11-11T11:12:49.530Z,74.77
2016-11-11T11:13:58.149Z,74.43
2016-11-11T11:15:06.756Z,74.05
2016-11-11T11:16:15.702Z,73.76
2016-11-11T11:17:24.693Z,74.15
2016-11-11T11:18:34.344Z,74.52
2016-11-11T11:19:44.190Z,73.48
2016-11-11T11:20:53.873Z,73.76
2016-11-11T11:22:02.488Z,73.86
2016-11-11T11:23:11.831Z,74.62
2016-11-11T11:24:21.546Z,74.24
2016-11-11T11:25:30.506Z,73.76
2016-11-11T11:26:39.769Z,73.86
2016-11-11T11:27:48.723Z,73.76
2016-11-11T11:28:57.661Z,74.05
2016-11-11T11:30:06.890Z,73.48
2016-11-11T11:31:16.468Z,73.86
2016-11-11T11:32:25.751Z,73.86
2016-11-11T11:33:34.694Z,74.62
2016-11-11T11:34:43.958Z,74.71
2016-11-11T11:35:53.314Z,74.15
2016-11-11T11:37:02.514Z,74.43
2016-11-11T11:38:11.459Z,74.43
2016-11-11T11:39:20.415Z,74.33
2016-11-11T11:40:29.361Z,73.76
2016-11-11T11:41:38.092Z,73.99
2016-11-11T11:42:47.028Z,74.62
2016-11-11T11:43:56.279Z,74.62
2016-11-11T11:45:05.224Z,74.62
2016-11-11T11:46:14.190Z,75
2016-11-11T11:47:23.526Z,74.62
2016-11-11T11:48:32.459Z,74.71
2016-11-11T11:49:41.095Z,74.43
2016-11-11T11:50:50.697Z,75
2016-11-11T11:51:59.636Z,75.28
2016-11-11T11:53:08.590Z,74.9
2016-11-11T11:54:17.217Z,74.71
2016-11-11T11:55:26.511Z,74.05
2016-11-11T11:56:35.161Z,73.96
2016-11-11T11:57:44.100Z,73.76
2016-11-11T11:58:53.463Z,73.99
2016-11-11T12:00:02.731Z,73.61
2016-11-11T12:01:11.713Z,73.67
2016-11-11T12:02:20.325Z,73.86
2016-11-11T12:03:28.936Z,73.76
2016-11-11T12:04:41.213Z,73.96
2016-11-11T12:05:50.490Z,73.96
2016-11-11T12:06:59.425Z,73.8
2016-11-11T12:08:08.375Z,73.33
2016-11-11T12:09:17.628Z,73.52
2016-11-11T12:10:27.286Z,72.95
2016-11-11T12:11:36.229Z,73.23
2016-11-11T12:12:44.838Z,73.52
2016-11-11T12:13:54.083Z,72.85
2016-11-11T12:15:03.034Z,73.14
2016-11-11T12:16:11.952Z,73.76
2016-11-11T12:17:21.220Z,74.52
2016-11-11T12:18:29.836Z,74.43
2016-11-11T12:19:39.107Z,73.96
2016-11-11T12:20:48.362Z,73.9
2016-11-11T12:21:57.627Z,73.99
2016-11-11T12:23:06.573Z,73.33
2016-11-11T12:24:15.182Z,73.8
2016-11-11T12:25:24.127Z,73.33
2016-11-11T12:26:33.071Z,73.52
2016-11-11T12:27:42.121Z,73.42
2016-11-11T12:28:51.053Z,73.99
2016-11-11T12:29:59.985Z,73.61
2016-11-11T12:31:09.263Z,73.23
2016-11-11T12:32:18.556Z,73.71
2016-11-11T12:33:27.806Z,74.08
2016-11-11T12:34:36.742Z,73.99
2016-11-11T12:35:45.685Z,73.52
2016-11-11T12:36:54.294Z,73.9
2016-11-11T12:38:02.916Z,74.18
2016-11-11T12:39:11.973Z,73.9
2016-11-11T12:40:21.248Z,74.75
2016-11-11T12:41:30.194Z,74.52
2016-11-11T12:42:39.464Z,74.81
2016-11-11T12:43:48.727Z,74.94
2016-11-11T12:44:58.018Z,75
2016-11-11T12:46:06.660Z,74.47
2016-11-11T12:47:15.923Z,73.99
2016-11-11T12:48:24.527Z,74.43
2016-11-11T12:49:33.130Z,74.24
2016-11-11T12:50:42.126Z,74.33
2016-11-11T12:51:51.367Z,74.62
2016-11-11T12:53:00.639Z,74.71
2016-11-11T12:54:09.582Z,74.15
2016-11-11T12:55:18.189Z,73.14
2016-11-11T12:56:27.554Z,73.9
2016-11-11T12:57:36.493Z,73.8
2016-11-11T12:58:45.768Z,73.57
2016-11-11T12:59:54.385Z,73.42
2016-11-11T13:01:03.006Z,74.52
2016-11-11T13:02:12.295Z,73.71
2016-11-11T13:03:21.225Z,72.66
2016-11-11T13:04:29.834Z,72.95
2016-11-11T13:05:38.782Z,73.57
2016-11-11T13:06:47.711Z,73.76
2016-11-11T13:07:57.028Z,74.52
2016-11-11T13:09:05.963Z,74.52
2016-11-11T13:10:14.567Z,74.9
2016-11-11T13:11:23.832Z,74.71
2016-11-11T13:12:33.103Z,73.96
2016-11-11T13:13:42.079Z,73.86
2016-11-11T13:14:51.019Z,73.99
2016-11-11T13:15:59.639Z,73.42
2016-11-11T13:17:08.592Z,73.42
2016-11-11T13:18:17.885Z,73.76
2016-11-11T13:19:26.955Z,73.57
2016-11-11T13:20:35.899Z,73.9
2016-11-11T13:21:44.517Z,73.99
2016-11-11T13:22:53.487Z,73.71
2016-11-11T13:24:02.449Z,73.8
2016-11-11T13:25:11.407Z,73.52
2016-11-11T13:26:20.036Z,73.61
2016-11-11T13:27:28.986Z,72.38
2016-11-11T13:28:38.238Z,72.47
2016-11-11T13:29:47.182Z,72.19
2016-11-11T13:30:56.217Z,71.9
2016-11-11T13:32:04.818Z,71.33
2016-11-11T13:33:14.071Z,71.9
2016-11-11T13:34:23.017Z,72.38
2016-11-11T13:35:31.630Z,72.09
2016-11-11T13:36:40.333Z,72.38
2016-11-11T13:37:49.281Z,73.04
2016-11-11T13:38:58.215Z,73.61
2016-11-11T13:40:07.191Z,73.04
2016-11-11T13:41:15.799Z,72.38
2016-11-11T13:42:25.112Z,71.9
2016-11-11T13:43:34.045Z,71.62
2016-11-11T13:44:43.633Z,71.33
2016-11-11T13:45:53.221Z,71.81
2016-11-11T13:47:02.163Z,71.81
2016-11-11T13:48:11.509Z,72.56
2016-11-11T13:49:20.780Z,72.47
2016-11-11T13:50:29.719Z,72.66
2016-11-11T13:51:38.659Z,73.33
2016-11-11T13:52:47.946Z,72.95
2016-11-11T13:53:56.912Z,72.38
2016-11-11T13:55:06.169Z,71.56
2016-11-11T13:56:15.795Z,71.62
2016-11-11T13:57:24.413Z,72.85
2016-11-11T13:58:33.343Z,74.08
2016-11-11T13:59:42.654Z,74.47
2016-11-11T14:00:51.587Z,74.27
2016-11-11T14:02:00.203Z,73.42
2016-11-11T14:03:09.467Z,74.08
2016-11-11T14:04:18.411Z,72.56
2016-11-11T14:05:27.874Z,73.08
2016-11-11T14:06:36.923Z,73.8
2016-11-11T14:07:46.699Z,73.71
2016-11-11T14:08:56.031Z,74.47
2016-11-11T14:10:05.395Z,74.47
2016-11-11T14:11:14.732Z,74.47
2016-11-11T14:12:23.667Z,74.37
2016-11-11T14:13:32.287Z,74.08
2016-11-11T14:14:41.228Z,74.18
2016-11-11T14:15:50.524Z,75.13
2016-11-11T14:16:59.874Z,74.85
2016-11-11T14:18:08.804Z,74.75
2016-11-11T14:19:17.744Z,75.04
2016-11-11T14:20:26.368Z,74.27
2016-11-11T14:21:36.005Z,74.75
2016-11-11T14:22:45.624Z,74.62
2016-11-11T14:23:54.870Z,74.66
2016-11-11T14:25:04.146Z,74.85
2016-11-11T14:26:12.766Z,74.66
2016-11-11T14:27:21.376Z,74.37
2016-11-11T14:28:30.030Z,75.42
2016-11-11T14:29:38.656Z,75.28
2016-11-11T14:30:47.604Z,74.94
2016-11-11T14:31:56.539Z,75.04
2016-11-11T14:33:05.486Z,75.79
2016-11-11T14:34:14.475Z,76.61
2016-11-11T14:35:24.077Z,76.42
2016-11-11T14:36:33.007Z,76.42
2016-11-11T14:37:41.951Z,76.61
2016-11-11T14:38:51.207Z,76.71
2016-11-11T14:40:00.550Z,76.23
2016-11-11T14:41:09.154Z,76.23
2016-11-11T14:42:17.755Z,75.85
2016-11-11T14:43:26.689Z,76.14
2016-11-11T14:44:35.636Z,77.09
2016-11-11T14:45:45.198Z,77.66
2016-11-11T14:46:53.817Z,76.71
2016-11-11T14:48:03.066Z,76.61
2016-11-11T14:49:11.995Z,76.99
2016-11-11T14:50:21.260Z,76.23
2016-11-11T14:51:29.922Z,76.65
2016-11-11T14:52:38.856Z,77.47
2016-11-11T14:53:47.470Z,78.13